createdAt,value
2022-11-07T00:00:23.052Z,7.51
2022-11-07T00:01:04.008Z,7.43
2022-11-07T00:01:44.014Z,7.50
2022-11-07T00:02:23.971Z,7.53
2022-11-07T00:03:04.125Z,7.51
2022-11-07T00:03:44.925Z,7.53
2022-11-07T00:04:25.048Z,7.54
2022-11-07T00:05:04.942Z,7.43
2022-11-07T00:05:48.000Z,7.34
2022-11-07T00:06:28.942Z,7.31
2022-11-07T00:07:09.977Z,7.40
2022-11-07T00:07:49.918Z,7.26
2022-11-07T00:08:31.762Z,7.30
2022-11-07T00:09:12.912Z,7.24
2022-11-07T00:09:52.987Z,7.28
2022-11-07T00:10:32.923Z,7.19
2022-11-07T00:11:14.002Z,7.34
2022-11-07T00:11:54.942Z,7.30
2022-11-07T00:12:36.486Z,7.33
2022-11-07T00:13:17.064Z,7.32
2022-11-07T00:13:57.003Z,7.37
2022-11-07T00:14:36.888Z,7.32
2022-11-07T00:15:17.946Z,7.37
2022-11-07T00:15:57.897Z,7.41
2022-11-07T00:16:52.923Z,7.40
2022-11-07T00:17:33.914Z,7.44
2022-11-07T00:18:13.982Z,7.42
2022-11-07T00:18:53.903Z,7.37
2022-11-07T00:19:34.006Z,7.41
2022-11-07T00:20:14.911Z,7.44
2022-11-07T00:20:55.987Z,7.43
2022-11-07T00:21:35.892Z,7.47
2022-11-07T00:22:15.917Z,7.48
2022-11-07T00:22:49.960Z,7.47
2022-11-07T00:23:36.923Z,7.49
2022-11-07T00:24:10.964Z,7.51
2022-11-07T00:24:57.897Z,7.39
2022-11-07T00:25:31.989Z,7.49
2022-11-07T00:26:20.902Z,7.40
2022-11-07T00:26:55.017Z,7.49
2022-11-07T00:27:35.996Z,7.43
2022-11-07T00:28:15.960Z,7.52
2022-11-07T00:28:55.875Z,7.46
2022-11-07T00:29:35.977Z,7.48
2022-11-07T00:30:16.896Z,7.38
2022-11-07T00:30:56.969Z,7.27
2022-11-07T00:31:37.911Z,7.33
2022-11-07T00:32:17.956Z,7.39
2022-11-07T00:33:00.337Z,7.35
2022-11-07T00:33:41.022Z,7.26
2022-11-07T00:34:21.871Z,7.15
2022-11-07T00:35:02.019Z,7.18
2022-11-07T00:35:41.881Z,7.22
2022-11-07T00:36:34.002Z,7.24
2022-11-07T00:37:15.086Z,7.24
2022-11-07T00:37:55.960Z,7.24
2022-11-07T00:38:36.908Z,7.18
2022-11-07T00:39:17.955Z,7.23
2022-11-07T00:39:57.873Z,7.22
2022-11-07T00:40:37.943Z,7.19
2022-11-07T00:41:18.879Z,7.25
2022-11-07T00:41:59.091Z,7.29
2022-11-07T00:42:39.879Z,7.25
2022-11-07T00:43:19.962Z,7.34
2022-11-07T00:44:00.900Z,7.37
2022-11-07T00:44:40.953Z,7.39
2022-11-07T00:45:20.873Z,7.35
2022-11-07T00:46:00.937Z,7.34
2022-11-07T00:46:40.864Z,7.26
2022-11-07T00:47:20.952Z,7.30
2022-11-07T00:48:01.858Z,7.30
2022-11-07T00:48:42.927Z,7.31
2022-11-07T00:49:22.954Z,7.34
2022-11-07T00:50:02.969Z,7.27
2022-11-07T00:50:42.867Z,7.24
2022-11-07T00:51:27.995Z,7.26
2022-11-07T00:52:07.858Z,7.30
2022-11-07T00:52:47.932Z,7.27
2022-11-07T00:53:28.854Z,7.24
2022-11-07T00:54:10.986Z,7.23
2022-11-07T00:54:50.855Z,7.35
2022-11-07T00:55:30.944Z,7.35
2022-11-07T00:56:14.864Z,7.38
2022-11-07T00:56:55.012Z,7.39
2022-11-07T00:57:34.869Z,7.33
2022-11-07T00:58:14.919Z,7.43
2022-11-07T00:58:55.856Z,7.46
2022-11-07T00:59:35.920Z,7.45
2022-11-07T01:00:17.864Z,7.40
2022-11-07T01:00:57.913Z,7.49
2022-11-07T01:01:39.949Z,7.40
2022-11-07T01:02:20.085Z,7.49
2022-11-07T01:03:19.854Z,7.52
2022-11-07T01:04:19.334Z,7.44
2022-11-07T01:05:16.856Z,7.51
2022-11-07T01:06:08.838Z,7.52
2022-11-07T01:06:45.029Z,7.49
2022-11-07T01:07:31.850Z,7.52
2022-11-07T01:08:05.891Z,7.55
2022-11-07T01:08:52.862Z,7.56
2022-11-07T01:09:28.981Z,7.52
2022-11-07T01:10:15.859Z,7.55
2022-11-07T01:10:56.845Z,7.55
2022-11-07T01:11:52.845Z,7.55
2022-11-07T01:12:48.843Z,7.60
2022-11-07T01:13:42.844Z,7.60
2022-11-07T01:14:37.848Z,7.55
2022-11-07T01:15:31.874Z,7.60
2022-11-07T01:16:25.866Z,7.56
2022-11-07T01:17:19.847Z,7.54
2022-11-07T01:18:13.841Z,7.52
2022-11-07T01:19:08.834Z,7.64
2022-11-07T01:20:02.840Z,7.64
2022-11-07T01:20:49.847Z,7.57
2022-11-07T01:21:23.887Z,7.63
2022-11-07T01:22:10.838Z,7.59
2022-11-07T01:22:44.916Z,7.69
2022-11-07T01:23:31.848Z,7.70
2022-11-07T01:24:05.898Z,7.61
2022-11-07T01:24:53.819Z,7.75
2022-11-07T01:25:27.906Z,7.66
2022-11-07T01:26:18.839Z,7.75
2022-11-07T01:26:53.970Z,7.76
2022-11-07T01:27:40.811Z,7.67
2022-11-07T01:28:15.919Z,7.66
2022-11-07T01:29:03.842Z,7.58
2022-11-07T01:29:37.920Z,7.69
2022-11-07T01:30:24.831Z,7.63
2022-11-07T01:30:58.885Z,7.69
2022-11-07T01:31:39.835Z,7.60
2022-11-07T01:32:19.884Z,7.61
2022-11-07T01:32:59.808Z,7.60
2022-11-07T01:33:39.913Z,7.64
2022-11-07T01:34:19.803Z,7.63
2022-11-07T01:34:59.905Z,7.70
2022-11-07T01:35:40.823Z,7.70
2022-11-07T01:36:23.908Z,7.68
2022-11-07T01:37:04.857Z,7.63
2022-11-07T01:37:44.912Z,7.71
2022-11-07T01:38:24.820Z,7.66
2022-11-07T01:39:05.920Z,7.62
2022-11-07T01:39:46.820Z,7.68
2022-11-07T01:40:28.085Z,7.62
2022-11-07T01:41:26.828Z,7.76
2022-11-07T01:42:13.843Z,7.66
2022-11-07T01:43:07.822Z,7.71
2022-11-07T01:44:20.835Z,7.67
2022-11-07T01:45:14.814Z,7.63
2022-11-07T01:46:08.816Z,7.73
2022-11-07T01:47:03.816Z,7.73
2022-11-07T01:47:45.844Z,7.74
2022-11-07T01:48:25.903Z,7.75
2022-11-07T01:49:29.807Z,7.67
2022-11-07T01:50:12.868Z,7.63
2022-11-07T01:50:52.800Z,7.64
2022-11-07T01:51:32.903Z,7.60
2022-11-07T01:52:23.798Z,7.52
2022-11-07T01:53:04.825Z,7.56
2022-11-07T01:53:38.858Z,7.53
2022-11-07T01:54:31.807Z,7.52
2022-11-07T01:55:25.870Z,7.48
2022-11-07T01:56:19.803Z,7.44
2022-11-07T01:56:53.863Z,7.45
2022-11-07T01:57:59.799Z,7.41
2022-11-07T01:58:40.794Z,7.47
2022-11-07T01:59:38.789Z,7.44
2022-11-07T02:00:35.804Z,7.46
2022-11-07T02:01:30.904Z,7.41
2022-11-07T02:02:24.836Z,7.43
2022-11-07T02:03:25.787Z,7.44
2022-11-07T02:04:06.839Z,7.43
2022-11-07T02:04:46.860Z,7.33
2022-11-07T02:05:50.780Z,7.35
2022-11-07T02:07:21.937Z,7.28
2022-11-07T02:08:02.780Z,7.13
2022-11-07T02:08:45.520Z,7.16
2022-11-07T02:09:26.884Z,7.23
2022-11-07T02:10:06.889Z,7.22
2022-11-07T02:10:47.778Z,7.25
2022-11-07T02:11:27.867Z,7.24
2022-11-07T02:12:08.779Z,7.29
2022-11-07T02:12:48.951Z,7.36
2022-11-07T02:13:35.766Z,7.39
2022-11-07T02:14:21.851Z,7.29
2022-11-07T02:15:02.815Z,7.35
2022-11-07T02:15:43.861Z,7.22
2022-11-07T02:16:23.777Z,7.22
2022-11-07T02:17:04.054Z,7.35
2022-11-07T02:17:43.777Z,7.39
2022-11-07T02:18:23.864Z,7.42
2022-11-07T02:19:03.767Z,7.40
2022-11-07T02:19:48.995Z,7.44
2022-11-07T02:20:29.808Z,7.46
2022-11-07T02:21:59.867Z,7.52
2022-11-07T02:23:03.795Z,7.35
2022-11-07T02:23:55.300Z,7.29
2022-11-07T02:24:38.767Z,7.29
2022-11-07T02:25:22.847Z,7.39
2022-11-07T02:26:03.788Z,7.29
2022-11-07T02:26:44.844Z,7.39
2022-11-07T02:27:27.787Z,7.48
2022-11-07T02:28:11.891Z,7.39
2022-11-07T02:28:53.759Z,7.43
2022-11-07T02:29:33.836Z,7.38
2022-11-07T02:30:27.764Z,7.45
2022-11-07T02:31:14.774Z,7.57
2022-11-07T02:32:23.765Z,7.56
2022-11-07T02:33:28.784Z,7.48
2022-11-07T02:34:22.756Z,7.60
2022-11-07T02:35:38.757Z,7.64
2022-11-07T02:36:35.794Z,7.69
2022-11-07T02:37:59.746Z,7.71
2022-11-07T02:38:53.749Z,7.77
2022-11-07T02:39:47.755Z,7.71
2022-11-07T02:40:44.767Z,7.70
2022-11-07T02:41:48.776Z,7.80
2022-11-07T02:42:51.743Z,7.85
2022-11-07T02:43:46.773Z,7.86
2022-11-07T02:44:40.746Z,7.84
2022-11-07T02:45:40.742Z,7.85
2022-11-07T02:46:35.759Z,7.82
2022-11-07T02:47:16.775Z,7.77
2022-11-07T02:47:56.835Z,7.80
2022-11-07T02:48:39.754Z,7.86
2022-11-07T02:49:19.829Z,7.88
2022-11-07T02:49:59.744Z,7.92
2022-11-07T02:50:40.007Z,7.92
2022-11-07T02:51:20.718Z,7.77
2022-11-07T02:52:01.657Z,7.89
2022-11-07T02:52:42.783Z,7.86
2022-11-07T02:53:22.849Z,7.80
2022-11-07T02:54:02.752Z,7.78
2022-11-07T02:54:42.841Z,7.75
2022-11-07T02:55:22.739Z,7.82
2022-11-07T02:56:02.821Z,7.88
2022-11-07T02:56:42.737Z,7.91
2022-11-07T02:57:22.838Z,7.91
2022-11-07T02:58:02.744Z,7.90
2022-11-07T02:58:43.783Z,7.82
2022-11-07T02:59:26.968Z,7.92
2022-11-07T03:00:08.798Z,7.87
2022-11-07T03:00:49.738Z,7.87
2022-11-07T03:01:29.881Z,7.88
2022-11-07T03:02:09.860Z,7.91
2022-11-07T03:02:50.895Z,7.90
2022-11-07T03:03:30.740Z,7.91
2022-11-07T03:04:10.810Z,7.97
2022-11-07T03:04:50.713Z,8.01
2022-11-07T03:05:30.815Z,8.01
2022-11-07T03:06:13.734Z,7.97
2022-11-07T03:06:53.826Z,8.04
2022-11-07T03:07:33.911Z,8.06
2022-11-07T03:08:13.788Z,8.06
2022-11-07T03:08:53.749Z,7.99
2022-11-07T03:09:33.843Z,8.10
2022-11-07T03:10:14.712Z,8.11
2022-11-07T03:10:54.788Z,8.12
2022-11-07T03:11:34.699Z,8.13
2022-11-07T03:12:14.804Z,8.12
2022-11-07T03:12:54.731Z,8.19
2022-11-07T03:13:34.893Z,8.14
2022-11-07T03:14:14.815Z,8.14
2022-11-07T03:14:54.829Z,8.23
2022-11-07T03:15:35.711Z,8.24
2022-11-07T03:16:17.780Z,8.20
2022-11-07T03:16:57.702Z,8.19
2022-11-07T03:17:37.778Z,8.19
2022-11-07T03:18:17.699Z,8.16
2022-11-07T03:18:57.804Z,8.24
2022-11-07T03:19:37.738Z,8.27
2022-11-07T03:20:17.783Z,8.28
2022-11-07T03:20:57.714Z,8.33
2022-11-07T03:21:37.791Z,8.28
2022-11-07T03:22:17.701Z,8.30
2022-11-07T03:22:57.776Z,8.38
2022-11-07T03:23:38.708Z,8.32
2022-11-07T03:24:18.771Z,8.42
2022-11-07T03:25:02.711Z,8.29
2022-11-07T03:25:42.812Z,8.30
2022-11-07T03:26:22.722Z,8.42
2022-11-07T03:27:02.847Z,8.42
2022-11-07T03:27:42.709Z,8.40
2022-11-07T03:28:22.835Z,8.38
2022-11-07T03:29:03.702Z,8.29
2022-11-07T03:29:43.775Z,8.32
2022-11-07T03:30:24.702Z,8.36
2022-11-07T03:31:09.802Z,8.34
2022-11-07T03:31:49.708Z,8.25
2022-11-07T03:32:29.784Z,8.36
2022-11-07T03:33:09.736Z,8.23
2022-11-07T03:33:49.806Z,8.36
2022-11-07T03:34:29.704Z,8.32
2022-11-07T03:35:09.761Z,8.32
2022-11-07T03:35:56.700Z,8.17
2022-11-07T03:36:30.872Z,8.20
2022-11-07T03:37:17.683Z,8.24
2022-11-07T03:37:52.758Z,8.28
2022-11-07T03:38:39.714Z,8.22
2022-11-07T03:39:13.772Z,8.20
2022-11-07T03:40:00.686Z,8.21
2022-11-07T03:40:34.778Z,8.31
2022-11-07T03:41:23.715Z,8.31
2022-11-07T03:41:57.784Z,8.22
2022-11-07T03:42:49.692Z,8.21
2022-11-07T03:43:23.775Z,8.24
2022-11-07T03:44:10.727Z,8.23
2022-11-07T03:44:44.787Z,8.18
2022-11-07T03:45:31.686Z,8.21
2022-11-07T03:46:05.793Z,8.35
2022-11-07T03:46:45.851Z,8.39
2022-11-07T03:47:25.761Z,8.34
2022-11-07T03:48:05.703Z,8.29
2022-11-07T03:48:45.768Z,8.42
2022-11-07T03:49:26.680Z,8.43
2022-11-07T03:50:06.777Z,8.40
2022-11-07T03:50:46.664Z,8.41
2022-11-07T03:51:26.760Z,8.43
2022-11-07T03:52:06.695Z,8.28
2022-11-07T03:52:46.792Z,8.33
2022-11-07T03:53:26.976Z,8.39
2022-11-07T03:54:07.760Z,8.29
2022-11-07T03:54:48.667Z,8.37
2022-11-07T03:55:28.757Z,8.29
2022-11-07T03:56:17.678Z,8.29
2022-11-07T03:56:57.779Z,8.41
2022-11-07T03:57:37.676Z,8.40
2022-11-07T03:58:17.780Z,8.34
2022-11-07T03:58:57.683Z,8.44
2022-11-07T03:59:37.796Z,8.48
2022-11-07T04:00:20.662Z,8.31
2022-11-07T04:01:00.734Z,8.30
2022-11-07T04:01:40.733Z,8.29
2022-11-07T04:02:20.956Z,8.17
2022-11-07T04:03:00.768Z,8.24
2022-11-07T04:03:40.749Z,8.25
2022-11-07T04:04:20.667Z,8.23
2022-11-07T04:05:00.746Z,8.23
2022-11-07T04:05:40.677Z,8.26
2022-11-07T04:06:22.851Z,8.25
2022-11-07T04:07:02.669Z,8.26
2022-11-07T04:07:42.757Z,8.32
2022-11-07T04:08:23.684Z,8.32
2022-11-07T04:09:03.744Z,8.38
2022-11-07T04:09:44.655Z,8.41
2022-11-07T04:10:24.723Z,8.37
2022-11-07T04:11:04.671Z,8.38
2022-11-07T04:12:03.130Z,8.31
2022-11-07T04:13:01.674Z,8.10
2022-11-07T04:14:00.705Z,8.17
2022-11-07T04:14:53.537Z,8.35
2022-11-07T04:15:59.670Z,8.32
2022-11-07T04:16:52.565Z,8.42
2022-11-07T04:17:39.658Z,8.34
2022-11-07T04:18:13.804Z,8.31
2022-11-07T04:19:01.753Z,8.24
2022-11-07T04:19:35.736Z,8.38
2022-11-07T04:20:22.640Z,8.35
2022-11-07T04:20:56.726Z,8.30
2022-11-07T04:21:43.652Z,8.36
2022-11-07T04:22:17.773Z,8.36
2022-11-07T04:23:04.647Z,8.40
2022-11-07T04:23:38.712Z,8.26
2022-11-07T04:24:25.688Z,8.36
2022-11-07T04:24:59.724Z,8.32
2022-11-07T04:26:05.663Z,8.41
2022-11-07T04:26:58.164Z,8.40
2022-11-07T04:27:50.638Z,8.41
2022-11-07T04:28:24.766Z,8.39
2022-11-07T04:29:11.636Z,8.32
2022-11-07T04:29:52.645Z,8.29
2022-11-07T04:30:46.668Z,8.34
2022-11-07T04:31:40.648Z,8.42
2022-11-07T04:32:36.639Z,8.35
2022-11-07T04:33:30.655Z,8.37
2022-11-07T04:34:24.639Z,8.44
2022-11-07T04:35:12.640Z,8.48
2022-11-07T04:35:46.690Z,8.38
2022-11-07T04:36:33.620Z,8.49
2022-11-07T04:37:07.750Z,8.45
2022-11-07T04:37:55.643Z,8.52
2022-11-07T04:38:29.698Z,8.46
2022-11-07T04:39:16.637Z,8.52
2022-11-07T04:39:50.700Z,8.55
2022-11-07T04:40:37.639Z,8.49
2022-11-07T04:41:11.703Z,8.49
2022-11-07T04:41:58.629Z,8.44
2022-11-07T04:42:32.688Z,8.45
2022-11-07T04:43:19.619Z,8.44
2022-11-07T04:43:53.707Z,8.42
2022-11-07T04:44:40.631Z,8.38
2022-11-07T04:45:15.707Z,8.48
2022-11-07T04:46:02.661Z,8.36
2022-11-07T04:46:36.696Z,8.37
2022-11-07T04:47:23.632Z,8.38
2022-11-07T04:47:57.696Z,8.36
2022-11-07T04:48:44.638Z,8.40
2022-11-07T04:49:18.680Z,8.37
2022-11-07T04:50:05.635Z,8.39
2022-11-07T04:50:39.720Z,8.50
2022-11-07T04:51:29.634Z,8.48
2022-11-07T04:52:03.770Z,8.42
2022-11-07T04:52:52.630Z,8.40
2022-11-07T04:53:26.682Z,8.43
2022-11-07T04:54:19.612Z,8.29
2022-11-07T04:54:53.683Z,8.41
2022-11-07T04:55:40.608Z,8.45
2022-11-07T04:56:14.715Z,8.44
2022-11-07T04:56:54.649Z,8.34
2022-11-07T04:57:34.678Z,8.39
2022-11-07T04:58:16.637Z,8.30
2022-11-07T04:58:56.697Z,8.32
2022-11-07T04:59:36.620Z,8.30
2022-11-07T05:00:17.699Z,8.23
2022-11-07T05:00:57.608Z,8.41
2022-11-07T05:01:37.750Z,8.41
2022-11-07T05:02:19.747Z,8.45
2022-11-07T05:02:59.996Z,8.40
2022-11-07T05:03:42.130Z,8.35
2022-11-07T05:04:22.702Z,8.47
2022-11-07T05:05:03.606Z,8.45
2022-11-07T05:05:43.674Z,8.38
2022-11-07T05:06:25.620Z,8.37
2022-11-07T05:07:05.661Z,8.35
2022-11-07T05:07:46.633Z,8.43
2022-11-07T05:08:26.667Z,8.48
2022-11-07T05:09:06.611Z,8.56
2022-11-07T05:09:46.739Z,8.56
2022-11-07T05:10:35.632Z,8.54
2022-11-07T05:11:15.706Z,8.61
2022-11-07T05:11:55.602Z,8.61
2022-11-07T05:12:35.696Z,8.66
2022-11-07T05:13:15.885Z,8.58
2022-11-07T05:13:56.683Z,8.57
2022-11-07T05:14:39.587Z,8.40
2022-11-07T05:15:20.659Z,8.49
2022-11-07T05:16:00.602Z,8.48
2022-11-07T05:16:40.678Z,8.58
2022-11-07T05:17:27.918Z,8.55
2022-11-07T05:18:08.681Z,8.45
2022-11-07T05:18:48.614Z,8.49
2022-11-07T05:19:28.661Z,8.54
2022-11-07T05:20:09.586Z,8.58
2022-11-07T05:20:49.663Z,8.59
2022-11-07T05:21:29.606Z,8.61
2022-11-07T05:22:28.468Z,8.56
2022-11-07T05:23:19.249Z,8.56
2022-11-07T05:24:06.693Z,8.62
2022-11-07T05:25:00.591Z,8.60
2022-11-07T05:25:55.703Z,8.60
2022-11-07T05:26:35.588Z,8.56
2022-11-07T05:27:24.827Z,8.66
2022-11-07T05:28:04.588Z,8.60
2022-11-07T05:28:44.660Z,8.63
2022-11-07T05:29:24.606Z,8.65
2022-11-07T05:30:04.964Z,8.64
2022-11-07T05:30:47.576Z,8.62
2022-11-07T05:31:27.654Z,8.72
2022-11-07T05:32:07.584Z,8.67
2022-11-07T05:32:47.670Z,8.76
2022-11-07T05:33:27.576Z,8.78
2022-11-07T05:34:12.108Z,8.82
2022-11-07T05:34:55.579Z,8.84
2022-11-07T05:35:35.648Z,8.75
2022-11-07T05:36:21.582Z,8.89
2022-11-07T05:37:01.685Z,8.84
2022-11-07T05:37:41.600Z,8.65
2022-11-07T05:38:21.680Z,8.75
2022-11-07T05:39:01.596Z,8.69
2022-11-07T05:39:42.652Z,8.69
2022-11-07T05:40:23.596Z,8.67
2022-11-07T05:41:03.743Z,8.67
2022-11-07T05:41:43.569Z,8.80
2022-11-07T05:42:41.677Z,8.72
2022-11-07T05:43:22.617Z,8.75
2022-11-07T05:44:04.095Z,8.78
2022-11-07T05:44:43.601Z,8.65
2022-11-07T05:45:30.614Z,8.72
2022-11-07T05:46:24.569Z,8.77
2022-11-07T05:47:18.577Z,8.75
2022-11-07T05:48:17.580Z,8.80
2022-11-07T05:49:11.588Z,8.84
2022-11-07T05:50:05.574Z,8.63
2022-11-07T05:50:52.630Z,8.64
2022-11-07T05:51:26.667Z,8.74
2022-11-07T05:52:13.588Z,8.70
2022-11-07T05:52:47.718Z,8.83
2022-11-07T05:53:35.639Z,8.90
2022-11-07T05:54:09.648Z,8.81
2022-11-07T05:54:56.564Z,8.81
2022-11-07T05:55:31.664Z,8.80
2022-11-07T05:56:12.575Z,8.81
2022-11-07T05:56:52.651Z,8.81
2022-11-07T05:57:35.578Z,8.82
2022-11-07T05:58:17.786Z,8.84
2022-11-07T05:58:57.590Z,8.91
2022-11-07T05:59:37.616Z,8.77
2022-11-07T06:00:19.569Z,8.90
2022-11-07T06:00:59.624Z,8.90
2022-11-07T06:01:40.728Z,8.94
2022-11-07T06:02:21.791Z,8.91
2022-11-07T06:03:04.626Z,8.74
2022-11-07T06:03:44.617Z,8.82
2022-11-07T06:04:24.552Z,8.77
2022-11-07T06:05:05.717Z,8.87
2022-11-07T06:05:46.546Z,8.72
2022-11-07T06:06:26.703Z,8.76
2022-11-07T06:07:06.562Z,8.63
2022-11-07T06:07:48.659Z,8.75
2022-11-07T06:08:29.567Z,8.83
2022-11-07T06:09:09.615Z,8.72
2022-11-07T06:09:50.565Z,8.72
2022-11-07T06:10:32.625Z,8.63
2022-11-07T06:11:13.534Z,8.73
2022-11-07T06:11:53.623Z,8.73
2022-11-07T06:12:33.564Z,8.80
2022-11-07T06:13:18.026Z,8.79
2022-11-07T06:14:01.547Z,8.80
2022-11-07T06:14:41.698Z,8.72
2022-11-07T06:15:21.548Z,8.75
2022-11-07T06:16:01.627Z,8.68
2022-11-07T06:16:42.539Z,8.66
2022-11-07T06:17:24.940Z,8.78
2022-11-07T06:18:09.568Z,8.73
2022-11-07T06:18:49.652Z,8.70
2022-11-07T06:19:30.548Z,8.81
2022-11-07T06:20:12.139Z,8.72
2022-11-07T06:20:53.528Z,8.77
2022-11-07T06:21:33.648Z,8.83
2022-11-07T06:22:13.566Z,8.76
2022-11-07T06:22:53.604Z,8.80
2022-11-07T06:23:35.581Z,8.80
2022-11-07T06:24:16.802Z,8.67
2022-11-07T06:24:57.553Z,8.80
2022-11-07T06:25:38.678Z,8.84
2022-11-07T06:26:18.558Z,8.85
2022-11-07T06:27:13.541Z,8.85
2022-11-07T06:28:15.591Z,8.86
2022-11-07T06:28:56.632Z,8.84
2022-11-07T06:29:36.608Z,8.88
2022-11-07T06:30:17.559Z,8.88
2022-11-07T06:30:57.634Z,8.87
2022-11-07T06:31:38.537Z,8.86
2022-11-07T06:32:18.614Z,8.85
2022-11-07T06:32:58.519Z,8.82
2022-11-07T06:33:39.659Z,8.81
2022-11-07T06:34:20.577Z,8.80
2022-11-07T06:35:00.676Z,8.74
2022-11-07T06:35:42.544Z,8.82
2022-11-07T06:36:36.543Z,8.77
2022-11-07T06:37:30.512Z,8.74
2022-11-07T06:38:27.530Z,8.70
2022-11-07T06:39:22.507Z,8.67
2022-11-07T06:40:17.580Z,8.67
2022-11-07T06:41:22.532Z,8.62
2022-11-07T06:42:16.589Z,8.69
2022-11-07T06:43:21.512Z,8.66
2022-11-07T06:44:15.557Z,8.58
2022-11-07T06:44:55.547Z,8.63
2022-11-07T06:45:35.603Z,8.63
2022-11-07T06:46:19.546Z,8.66
2022-11-07T06:46:59.578Z,8.72
2022-11-07T06:47:41.534Z,8.75
2022-11-07T06:48:21.673Z,8.67
2022-11-07T06:49:03.542Z,8.61
2022-11-07T06:49:43.597Z,8.64
2022-11-07T06:50:23.526Z,8.68
2022-11-07T06:51:06.625Z,8.64
2022-11-07T06:51:48.073Z,8.70
2022-11-07T06:52:28.570Z,8.74
2022-11-07T06:53:15.096Z,8.65
2022-11-07T06:53:55.617Z,8.78
2022-11-07T06:54:35.505Z,8.68
2022-11-07T06:55:15.612Z,8.65
2022-11-07T06:55:55.573Z,8.75
2022-11-07T06:56:35.668Z,8.62
2022-11-07T06:57:16.496Z,8.62
2022-11-07T06:57:57.525Z,8.63
2022-11-07T06:58:38.504Z,8.68
2022-11-07T06:59:18.568Z,8.61
2022-11-07T06:59:58.503Z,8.54
2022-11-07T07:00:40.716Z,8.56
2022-11-07T07:01:21.737Z,8.56
2022-11-07T07:02:01.649Z,8.59
2022-11-07T07:02:57.960Z,8.55
2022-11-07T07:03:40.285Z,8.72
2022-11-07T07:04:21.497Z,8.67
2022-11-07T07:05:01.617Z,8.66
2022-11-07T07:05:43.494Z,8.60
2022-11-07T07:06:31.520Z,8.75
2022-11-07T07:07:25.532Z,8.70
2022-11-07T07:08:21.500Z,8.70
2022-11-07T07:09:16.525Z,8.72
2022-11-07T07:10:11.513Z,8.67
2022-11-07T07:11:05.487Z,8.76
2022-11-07T07:11:52.487Z,8.74
2022-11-07T07:12:26.625Z,8.81
2022-11-07T07:13:15.848Z,8.76
2022-11-07T07:13:50.551Z,8.79
2022-11-07T07:14:37.491Z,8.75
2022-11-07T07:15:11.598Z,8.79
2022-11-07T07:16:02.497Z,8.82
2022-11-07T07:16:36.588Z,8.77
2022-11-07T07:17:18.490Z,8.85
2022-11-07T07:17:58.544Z,8.82
2022-11-07T07:18:39.462Z,8.84
2022-11-07T07:19:19.575Z,8.80
2022-11-07T07:19:59.695Z,8.90
2022-11-07T07:20:39.561Z,8.91
2022-11-07T07:21:21.478Z,8.92
2022-11-07T07:22:01.628Z,8.78
2022-11-07T07:22:41.489Z,8.88
2022-11-07T07:23:23.570Z,8.86
2022-11-07T07:24:04.494Z,8.87
2022-11-07T07:24:44.529Z,8.84
2022-11-07T07:25:24.460Z,8.88
2022-11-07T07:26:04.621Z,8.93
2022-11-07T07:26:44.487Z,8.94
2022-11-07T07:27:24.797Z,8.98
2022-11-07T07:28:04.492Z,9.05
2022-11-07T07:28:44.672Z,8.96
2022-11-07T07:29:25.491Z,8.98
2022-11-07T07:30:05.546Z,8.98
2022-11-07T07:30:51.536Z,8.96
2022-11-07T07:31:37.557Z,8.96
2022-11-07T07:32:17.536Z,8.98
2022-11-07T07:32:57.596Z,9.03
2022-11-07T07:33:38.575Z,9.05
2022-11-07T07:34:18.551Z,9.04
2022-11-07T07:34:59.463Z,9.00
2022-11-07T07:35:39.553Z,9.02
2022-11-07T07:36:21.072Z,8.92
2022-11-07T07:37:01.535Z,8.90
2022-11-07T07:37:41.460Z,8.89
2022-11-07T07:38:21.509Z,8.93
2022-11-07T07:39:02.471Z,8.91
2022-11-07T07:39:42.582Z,8.92
2022-11-07T07:40:23.477Z,8.94
2022-11-07T07:41:04.711Z,8.83
2022-11-07T07:41:44.471Z,8.95
2022-11-07T07:42:24.516Z,8.98
2022-11-07T07:43:04.455Z,8.95
2022-11-07T07:43:44.545Z,8.92
2022-11-07T07:44:25.493Z,8.88
2022-11-07T07:45:05.579Z,8.96
2022-11-07T07:45:45.480Z,8.88
2022-11-07T07:46:29.616Z,9.01
2022-11-07T07:47:11.452Z,8.93
2022-11-07T07:47:52.997Z,8.99
2022-11-07T07:48:33.464Z,9.03
2022-11-07T07:49:14.580Z,8.91
2022-11-07T07:49:54.482Z,8.95
2022-11-07T07:50:34.510Z,9.02
2022-11-07T07:51:15.456Z,8.92
2022-11-07T07:51:55.577Z,8.94
2022-11-07T07:52:35.453Z,9.10
2022-11-07T07:53:15.751Z,9.12
2022-11-07T07:53:56.496Z,9.09
2022-11-07T07:54:37.635Z,9.08
2022-11-07T07:55:18.492Z,9.18
2022-11-07T07:56:06.374Z,9.14
2022-11-07T07:56:46.441Z,9.12
2022-11-07T07:57:26.529Z,9.16
2022-11-07T07:58:06.444Z,9.12
2022-11-07T07:58:47.559Z,9.15
2022-11-07T07:59:27.471Z,9.15
2022-11-07T08:00:07.615Z,9.09
2022-11-07T08:00:48.566Z,9.18
2022-11-07T08:01:28.591Z,9.17
2022-11-07T08:02:08.491Z,9.13
2022-11-07T08:02:48.532Z,9.22
2022-11-07T08:03:44.560Z,9.15
2022-11-07T08:04:29.522Z,9.25
2022-11-07T08:05:10.474Z,9.26
2022-11-07T08:05:57.495Z,9.28
2022-11-07T08:06:51.483Z,9.28
2022-11-07T08:07:45.448Z,9.26
2022-11-07T08:08:39.488Z,9.21
2022-11-07T08:09:33.451Z,9.37
2022-11-07T08:10:41.608Z,9.37
2022-11-07T08:11:22.468Z,9.38
2022-11-07T08:12:04.553Z,9.30
2022-11-07T08:12:51.457Z,9.24
2022-11-07T08:13:32.561Z,9.28
2022-11-07T08:14:12.459Z,9.42
2022-11-07T08:14:52.508Z,9.39
2022-11-07T08:15:32.454Z,9.42
2022-11-07T08:16:13.500Z,9.42
2022-11-07T08:16:53.442Z,9.37
2022-11-07T08:17:33.476Z,9.45
2022-11-07T08:18:14.460Z,9.50
2022-11-07T08:18:54.542Z,9.49
2022-11-07T08:19:34.435Z,9.39
2022-11-07T08:20:20.588Z,9.48
2022-11-07T08:21:02.559Z,9.42
2022-11-07T08:21:42.504Z,9.46
2022-11-07T08:22:22.450Z,9.50
2022-11-07T08:23:15.984Z,9.57
2022-11-07T08:23:59.456Z,9.51
2022-11-07T08:24:39.560Z,9.46
2022-11-07T08:25:19.433Z,9.55
2022-11-07T08:26:04.479Z,9.58
2022-11-07T08:26:45.453Z,9.49
2022-11-07T08:27:32.489Z,9.58
2022-11-07T08:28:26.630Z,9.61
2022-11-07T08:29:20.419Z,9.66
2022-11-07T08:30:18.141Z,9.55
2022-11-07T08:31:24.430Z,9.73
2022-11-07T08:32:19.448Z,9.63
2022-11-07T08:33:00.462Z,9.63
2022-11-07T08:33:41.547Z,9.74
2022-11-07T08:34:21.416Z,9.75
2022-11-07T08:35:01.500Z,9.77
2022-11-07T08:35:42.837Z,9.68
2022-11-07T08:36:23.520Z,9.77
2022-11-07T08:37:04.420Z,9.67
2022-11-07T08:37:44.559Z,9.70
2022-11-07T08:38:24.536Z,9.62
2022-11-07T08:39:04.516Z,9.66
2022-11-07T08:39:44.432Z,9.70
2022-11-07T08:40:24.513Z,9.77
2022-11-07T08:41:05.419Z,9.81
2022-11-07T08:41:45.506Z,9.69
2022-11-07T08:42:26.395Z,9.85
2022-11-07T08:43:07.479Z,9.85
2022-11-07T08:43:47.448Z,9.77
2022-11-07T08:44:27.548Z,9.88
2022-11-07T08:45:07.397Z,9.80
2022-11-07T08:45:47.865Z,9.88
2022-11-07T08:46:27.397Z,9.82
2022-11-07T08:47:10.493Z,9.90
2022-11-07T08:47:51.481Z,9.89
2022-11-07T08:48:31.546Z,9.84
2022-11-07T08:49:11.395Z,9.97
2022-11-07T08:49:51.449Z,9.97
2022-11-07T08:50:33.397Z,9.88
2022-11-07T08:51:14.511Z,10.06
2022-11-07T08:51:54.386Z,9.95
2022-11-07T08:52:34.464Z,10.14
2022-11-07T08:53:15.575Z,10.01
2022-11-07T08:53:55.533Z,9.92
2022-11-07T08:54:35.407Z,9.97
2022-11-07T08:55:16.437Z,9.98
2022-11-07T08:55:57.366Z,10.01
2022-11-07T08:56:39.440Z,9.98
2022-11-07T08:57:20.407Z,10.00
2022-11-07T08:58:15.179Z,10.02
2022-11-07T08:58:55.379Z,9.96
2022-11-07T08:59:42.428Z,10.03
2022-11-07T09:00:36.473Z,10.05
2022-11-07T09:01:30.502Z,10.07
2022-11-07T09:03:50.696Z,10.26
2022-11-07T09:04:47.534Z,10.26
2022-11-07T09:05:41.433Z,10.39
2022-11-07T09:06:35.393Z,10.29
2022-11-07T09:07:29.379Z,10.35
2022-11-07T09:08:23.414Z,10.43
2022-11-07T09:09:17.362Z,10.38
2022-11-07T09:10:04.405Z,10.40
2022-11-07T09:10:38.952Z,10.46
2022-11-07T09:11:28.380Z,10.41
2022-11-07T09:12:02.792Z,10.36
2022-11-07T09:12:58.374Z,10.40
2022-11-07T09:13:32.459Z,10.43
2022-11-07T09:14:19.431Z,10.40
2022-11-07T09:14:53.411Z,10.45
2022-11-07T09:15:34.403Z,10.47
2022-11-07T09:16:17.395Z,10.53
2022-11-07T09:16:58.445Z,10.54
2022-11-07T09:17:38.472Z,10.51
2022-11-07T09:18:18.388Z,10.56
2022-11-07T09:18:59.463Z,10.59
2022-11-07T09:19:39.360Z,10.52
2022-11-07T09:20:20.487Z,10.54
2022-11-07T09:21:01.433Z,10.47
2022-11-07T09:21:42.317Z,10.56
2022-11-07T09:22:23.405Z,10.60
2022-11-07T09:23:04.408Z,10.62
2022-11-07T09:23:45.368Z,10.59
2022-11-07T09:24:26.498Z,10.67
2022-11-07T09:25:06.356Z,10.56
2022-11-07T09:25:46.667Z,10.64
2022-11-07T09:26:26.382Z,10.61
2022-11-07T09:27:06.423Z,10.61
2022-11-07T09:27:46.372Z,10.67
2022-11-07T09:28:26.441Z,10.61
2022-11-07T09:29:06.341Z,10.70
2022-11-07T09:29:46.553Z,10.68
2022-11-07T09:30:27.340Z,10.74
2022-11-07T09:31:09.475Z,10.77
2022-11-07T09:31:50.395Z,10.67
2022-11-07T09:32:44.711Z,10.56
2022-11-07T09:33:26.364Z,10.70
2022-11-07T09:34:07.564Z,10.73
2022-11-07T09:34:54.367Z,10.68
2022-11-07T09:35:37.462Z,10.73
2022-11-07T09:36:19.358Z,10.68
2022-11-07T09:37:06.388Z,10.69